createdAt,value
2016-06-04T00:00:01.636Z,19.9
2016-06-04T00:00:11.620Z,19.9
2016-06-04T00:00:21.605Z,19.9
2016-06-04T00:00:31.605Z,19.8
2016-06-04T00:00:41.607Z,20
2016-06-04T00:00:51.591Z,19.9
2016-06-04T00:01:01.560Z,20
2016-06-04T00:01:11.544Z,19.9
2016-06-04T00:01:21.544Z,20
2016-06-04T00:01:31.528Z,19.9
2016-06-04T00:01:41.516Z,19.9
2016-06-04T00:01:51.500Z,20
2016-06-04T00:02:01.500Z,19.8
2016-06-04T00:02:11.485Z,19.8
2016-06-04T00:02:21.469Z,19.8
2016-06-04T00:02:31.453Z,19.9
2016-06-04T00:02:41.455Z,20
2016-06-04T00:02:51.440Z,19.8
2016-06-04T00:03:01.424Z,19.9
2016-06-04T00:03:11.424Z,19.9
2016-06-04T00:03:21.408Z,19.9
2016-06-04T00:03:31.393Z,19.9
2016-06-04T00:03:41.381Z,19.8
2016-06-04T00:03:51.225Z,19.8
2016-06-04T00:04:01.366Z,19.9
2016-06-04T00:04:11.350Z,19.9
2016-06-04T00:04:21.334Z,19.9
2016-06-04T00:04:31.334Z,19.9
2016-06-04T00:04:41.305Z,19.9
2016-06-04T00:04:51.305Z,19.9
2016-06-04T00:05:01.289Z,19.8
2016-06-04T00:05:11.274Z,20
2016-06-04T00:05:21.274Z,19.9
2016-06-04T00:05:31.258Z,19.9
2016-06-04T00:05:41.246Z,19.9
2016-06-04T00:05:51.230Z,19.9
2016-06-04T00:06:01.230Z,19.8
2016-06-04T00:06:11.058Z,19.8
2016-06-04T00:06:21.199Z,19.8
2016-06-04T00:06:31.183Z,19.8
2016-06-04T00:06:41.186Z,19.8
2016-06-04T00:06:51.170Z,19.8
2016-06-04T00:07:01.155Z,19.8
2016-06-04T00:07:11.155Z,19.8
2016-06-04T00:07:21.124Z,19.8
2016-06-04T00:07:31.124Z,19.9
2016-06-04T00:07:41.110Z,19.8
2016-06-04T00:07:51.094Z,19.9
2016-06-04T00:08:01.094Z,19.8
2016-06-04T00:08:11.079Z,19.9
2016-06-04T00:08:21.063Z,19.9
2016-06-04T00:08:31.047Z,19.8
2016-06-04T00:08:41.066Z,19.9
2016-06-04T00:08:50.879Z,19.9
2016-06-04T00:09:01.019Z,19.9
2016-06-04T00:09:11.004Z,19.9
2016-06-04T00:09:20.988Z,19.9
2016-06-04T00:09:30.988Z,19.8
2016-06-04T00:09:40.991Z,19.8
2016-06-04T00:09:50.975Z,19.8
2016-06-04T00:10:00.944Z,19.8
2016-06-04T00:10:10.944Z,19.7
2016-06-04T00:10:20.928Z,19.7
2016-06-04T00:10:30.928Z,19.8
2016-06-04T00:10:40.759Z,19.7
2016-06-04T00:10:50.899Z,19.8
2016-06-04T00:11:02.149Z,19.7
2016-06-04T00:11:10.899Z,19.7
2016-06-04T00:11:21.024Z,19.8
2016-06-04T00:11:30.946Z,19.7
2016-06-04T00:11:40.995Z,19.8
2016-06-04T00:11:50.823Z,19.7
2016-06-04T00:12:00.839Z,19.8
2016-06-04T00:12:10.807Z,19.7
2016-06-04T00:12:20.792Z,19.7
2016-06-04T00:12:30.792Z,19.7
2016-06-04T00:12:40.780Z,19.8
2016-06-04T00:12:50.765Z,19.8
2016-06-04T00:13:00.749Z,19.8
2016-06-04T00:13:10.796Z,19.8
2016-06-04T00:13:20.733Z,19.8
2016-06-04T00:13:30.718Z,19.8
2016-06-04T00:13:40.720Z,19.8
2016-06-04T00:13:50.720Z,19.8
2016-06-04T00:14:00.688Z,19.8
2016-06-04T00:14:10.673Z,19.9
2016-06-04T00:14:20.657Z,19.8
2016-06-04T00:14:30.642Z,19.8
2016-06-04T00:14:40.676Z,19.8
2016-06-04T00:14:50.629Z,19.8
2016-06-04T00:15:00.613Z,19.8
2016-06-04T00:15:10.598Z,19.8
2016-06-04T00:15:20.441Z,19.8
2016-06-04T00:15:30.582Z,19.8
2016-06-04T00:15:40.584Z,19.8
2016-06-04T00:15:50.584Z,19.8
2016-06-04T00:16:00.553Z,19.8
2016-06-04T00:16:10.537Z,19.8
2016-06-04T00:16:20.522Z,19.7
2016-06-04T00:16:30.522Z,19.7
2016-06-04T00:16:40.493Z,19.8
2016-06-04T00:16:50.493Z,19.8
2016-06-04T00:17:00.478Z,19.7
2016-06-04T00:17:10.462Z,19.7
2016-06-04T00:17:20.462Z,19.7
2016-06-04T00:17:30.446Z,19.7
2016-06-04T00:17:40.449Z,19.8
2016-06-04T00:17:50.418Z,19.8
2016-06-04T00:18:00.403Z,19.8
2016-06-04T00:18:10.403Z,19.7
2016-06-04T00:18:20.387Z,19.8
2016-06-04T00:18:30.387Z,19.8
2016-06-04T00:18:40.373Z,19.8
2016-06-04T00:18:50.358Z,19.7
2016-06-04T00:19:00.342Z,19.7
2016-06-04T00:19:10.326Z,19.8
2016-06-04T00:19:20.326Z,19.8
2016-06-04T00:19:30.326Z,19.7
2016-06-04T00:19:40.299Z,19.7
2016-06-04T00:19:50.299Z,19.7
2016-06-04T00:20:00.127Z,19.7
2016-06-04T00:20:10.268Z,19.6
2016-06-04T00:20:20.268Z,19.7
2016-06-04T00:20:30.237Z,19.7
2016-06-04T00:20:40.239Z,19.7
2016-06-04T00:20:50.223Z,19.7
2016-06-04T00:21:00.207Z,19.7
2016-06-04T00:21:10.207Z,19.6
2016-06-04T00:21:20.192Z,19.7
2016-06-04T00:21:30.176Z,19.6
2016-06-04T00:21:40.164Z,19.6
2016-06-04T00:21:50.148Z,19.6
2016-06-04T00:22:00.148Z,19.7
2016-06-04T00:22:10.132Z,19.8
2016-06-04T00:22:20.117Z,19.7
2016-06-04T00:22:30.101Z,19.7
2016-06-04T00:22:40.087Z,19.6
2016-06-04T00:22:50.087Z,19.6
2016-06-04T00:23:00.072Z,19.7
2016-06-04T00:23:10.166Z,19.7
2016-06-04T00:23:20.056Z,19.7
2016-06-04T00:23:30.041Z,19.7
2016-06-04T00:23:40.028Z,19.7
2016-06-04T00:23:50.028Z,19.7
2016-06-04T00:23:59.997Z,19.6
2016-06-04T00:24:10.059Z,19.7
2016-06-04T00:24:19.981Z,19.7
2016-06-04T00:24:29.965Z,19.7
2016-06-04T00:24:39.953Z,19.8
2016-06-04T00:24:49.953Z,19.7
2016-06-04T00:24:59.937Z,19.7
2016-06-04T00:25:09.922Z,19.8
2016-06-04T00:25:19.906Z,19.7
2016-06-04T00:25:29.906Z,19.8
2016-06-04T00:25:40.034Z,19.8
2016-06-04T00:25:49.737Z,19.7
2016-06-04T00:26:00.425Z,19.8
2016-06-04T00:26:10.581Z,19.7
2016-06-04T00:26:19.846Z,19.7
2016-06-04T00:26:29.893Z,19.7
2016-06-04T00:26:39.817Z,19.7
2016-06-04T00:26:50.177Z,19.7
2016-06-04T00:26:59.802Z,19.7
2016-06-04T00:27:09.786Z,19.6
2016-06-04T00:27:19.770Z,19.6
2016-06-04T00:27:29.614Z,19.6
2016-06-04T00:27:39.757Z,19.6
2016-06-04T00:27:49.741Z,19.6
2016-06-04T00:27:59.741Z,19.6
2016-06-04T00:28:09.725Z,19.6
2016-06-04T00:28:19.710Z,19.5
2016-06-04T00:28:29.694Z,19.6
2016-06-04T00:28:39.683Z,19.5
2016-06-04T00:28:49.683Z,19.6
2016-06-04T00:28:59.667Z,19.6
2016-06-04T00:29:09.651Z,19.5
2016-06-04T00:29:19.636Z,19.5
2016-06-04T00:29:29.636Z,19.5
2016-06-04T00:29:39.622Z,19.5
2016-06-04T00:29:49.606Z,19.6
2016-06-04T00:29:59.606Z,19.6
2016-06-04T00:30:09.591Z,19.6
2016-06-04T00:30:19.575Z,19.6
2016-06-04T00:30:29.560Z,19.6
2016-06-04T00:30:39.563Z,19.6
2016-06-04T00:30:49.391Z,19.5
2016-06-04T00:30:59.531Z,19.5
2016-06-04T00:31:09.516Z,19.5
2016-06-04T00:31:19.500Z,19.5
2016-06-04T00:31:29.484Z,19.4
2016-06-04T00:31:39.486Z,19.5
2016-06-04T00:31:49.471Z,19.5
2016-06-04T00:31:59.455Z,19.5
2016-06-04T00:32:09.440Z,19.5
2016-06-04T00:32:19.440Z,19.6
2016-06-04T00:32:29.424Z,19.6
2016-06-04T00:32:39.411Z,19.5
2016-06-04T00:32:49.411Z,19.5
2016-06-04T00:32:59.396Z,19.5
2016-06-04T00:33:09.380Z,19.5
2016-06-04T00:33:19.380Z,19.5
2016-06-04T00:33:29.364Z,19.5
2016-06-04T00:33:39.352Z,19.5
2016-06-04T00:33:49.336Z,19.5
2016-06-04T00:33:59.321Z,19.5
2016-06-04T00:34:09.305Z,19.5
2016-06-04T00:34:19.305Z,19.5
2016-06-04T00:34:29.305Z,19.4
2016-06-04T00:34:39.292Z,19.4
2016-06-04T00:34:49.261Z,19.5
2016-06-04T00:34:59.261Z,19.5
2016-06-04T00:35:09.245Z,19.4
2016-06-04T00:35:19.230Z,19.4
2016-06-04T00:35:29.230Z,19.3
2016-06-04T00:35:39.216Z,19.3
2016-06-04T00:35:49.201Z,19.3
2016-06-04T00:35:59.185Z,19.3
2016-06-04T00:36:09.185Z,19.3
2016-06-04T00:36:19.169Z,19.4
2016-06-04T00:36:29.154Z,19.4
2016-06-04T00:36:39.141Z,19.3
2016-06-04T00:36:49.141Z,19.2
2016-06-04T00:36:59.125Z,19.4
2016-06-04T00:37:09.110Z,19.3
2016-06-04T00:37:19.110Z,19.2
2016-06-04T00:37:29.125Z,19.3
2016-06-04T00:37:39.082Z,19.3
2016-06-04T00:37:49.066Z,19.3
2016-06-04T00:37:59.050Z,19.3
2016-06-04T00:38:09.050Z,19.3
2016-06-04T00:38:19.035Z,19.3
2016-06-04T00:38:29.019Z,19.3
2016-06-04T00:38:39.022Z,19.3
2016-06-04T00:38:49.022Z,19.3
2016-06-04T00:38:58.991Z,19.2
2016-06-04T00:39:08.975Z,19.2
2016-06-04T00:39:18.975Z,19.4
2016-06-04T00:39:28.944Z,19.4
2016-06-04T00:39:38.946Z,19.3
2016-06-04T00:39:48.930Z,19.3
2016-06-04T00:39:58.915Z,19.3
2016-06-04T00:40:08.899Z,19.3
2016-06-04T00:40:18.899Z,19.3
2016-06-04T00:40:28.883Z,19.3
2016-06-04T00:40:39.590Z,19.3
2016-06-04T00:40:48.871Z,19.3
2016-06-04T00:40:59.090Z,19.3
2016-06-04T00:41:08.980Z,19.3
2016-06-04T00:41:18.902Z,19.3
2016-06-04T00:41:28.840Z,19.4
2016-06-04T00:41:39.046Z,19.3
2016-06-04T00:41:48.811Z,19.4
2016-06-04T00:41:58.780Z,19.3
2016-06-04T00:42:08.624Z,19.4
2016-06-04T00:42:18.764Z,19.3
2016-06-04T00:42:28.749Z,19.4
2016-06-04T00:42:38.735Z,19.4
2016-06-04T00:42:48.720Z,19.4
2016-06-04T00:42:58.563Z,19.2
2016-06-04T00:43:08.704Z,19.3
2016-06-04T00:43:18.688Z,19.3
2016-06-04T00:43:28.673Z,19.3
2016-06-04T00:43:38.657Z,19.3
2016-06-04T00:43:48.660Z,19.3
2016-06-04T00:43:58.644Z,19.4
2016-06-04T00:44:08.629Z,19.2
2016-06-04T00:44:18.629Z,19.2
2016-06-04T00:44:28.613Z,19.3
2016-06-04T00:44:38.598Z,19.4
2016-06-04T00:44:48.850Z,19.2
2016-06-04T00:44:58.584Z,19.3
2016-06-04T00:45:08.568Z,19.3
2016-06-04T00:45:18.553Z,19.3
2016-06-04T00:45:28.537Z,19.3
2016-06-04T00:45:38.537Z,19.3
2016-06-04T00:45:48.525Z,19.3
2016-06-04T00:45:58.510Z,19.2
2016-06-04T00:46:08.510Z,19.3
2016-06-04T00:46:18.494Z,19.2
2016-06-04T00:46:28.479Z,19.2
2016-06-04T00:46:38.463Z,19.2
2016-06-04T00:46:48.465Z,19.1
2016-06-04T00:46:58.434Z,19.2
2016-06-04T00:47:08.434Z,19.3
2016-06-04T00:47:18.418Z,19.1
2016-06-04T00:47:28.402Z,19.1
2016-06-04T00:47:38.402Z,19.1
2016-06-04T00:47:48.390Z,19.1
2016-06-04T00:47:58.374Z,19.1
2016-06-04T00:48:08.359Z,19.1
2016-06-04T00:48:18.359Z,19.1
2016-06-04T00:48:28.343Z,19
2016-06-04T00:48:38.327Z,19
2016-06-04T00:48:48.314Z,19
2016-06-04T00:48:58.298Z,19
2016-06-04T00:49:08.282Z,19.1
2016-06-04T00:49:18.298Z,19.1
2016-06-04T00:49:28.267Z,19.2
2016-06-04T00:49:38.267Z,19.1
2016-06-04T00:49:48.254Z,19
2016-06-04T00:49:58.239Z,19.1
2016-06-04T00:50:08.223Z,19.1
2016-06-04T00:50:18.223Z,19
2016-06-04T00:50:28.207Z,19
2016-06-04T00:50:38.192Z,19
2016-06-04T00:50:48.179Z,19
2016-06-04T00:50:58.163Z,19.1
2016-06-04T00:51:08.163Z,19
2016-06-04T00:51:18.148Z,19
2016-06-04T00:51:28.148Z,19
2016-06-04T00:51:38.117Z,19
2016-06-04T00:51:48.103Z,19
2016-06-04T00:51:58.103Z,18.9
2016-06-04T00:52:08.087Z,19
2016-06-04T00:52:18.072Z,19
2016-06-04T00:52:28.072Z,19
2016-06-04T00:52:38.056Z,18.9
2016-06-04T00:52:48.060Z,18.9
2016-06-04T00:52:58.029Z,19
2016-06-04T00:53:08.029Z,19
2016-06-04T00:53:18.013Z,19
2016-06-04T00:53:28.013Z,19
2016-06-04T00:53:37.982Z,19
2016-06-04T00:53:47.984Z,19
2016-06-04T00:53:57.968Z,19
2016-06-04T00:54:07.953Z,19
2016-06-04T00:54:17.953Z,19.1
2016-06-04T00:54:27.937Z,19
2016-06-04T00:54:37.921Z,19
2016-06-04T00:54:47.908Z,19
2016-06-04T00:54:57.892Z,19
2016-06-04T00:55:07.892Z,19.1
2016-06-04T00:55:17.877Z,19
2016-06-04T00:55:27.720Z,19
2016-06-04T00:55:37.861Z,19
2016-06-04T00:55:47.692Z,19
2016-06-04T00:55:58.067Z,19
2016-06-04T00:56:07.833Z,19
2016-06-04T00:56:17.645Z,19
2016-06-04T00:56:28.208Z,19
2016-06-04T00:56:37.645Z,19
2016-06-04T00:56:48.523Z,19
2016-06-04T00:56:57.758Z,19
2016-06-04T00:57:07.742Z,19
2016-06-04T00:57:17.742Z,19
2016-06-04T00:57:27.570Z,19
2016-06-04T00:57:37.711Z,19
2016-06-04T00:57:47.714Z,19
2016-06-04T00:57:57.698Z,18.9
2016-06-04T00:58:07.682Z,19
2016-06-04T00:58:17.667Z,19
2016-06-04T00:58:27.667Z,18.9
2016-06-04T00:58:37.651Z,19
2016-06-04T00:58:47.650Z,19
2016-06-04T00:58:57.634Z,19
2016-06-04T00:59:07.618Z,19
2016-06-04T00:59:17.618Z,19
2016-06-04T00:59:27.603Z,19
2016-06-04T00:59:37.587Z,18.9
2016-06-04T00:59:47.624Z,19
2016-06-04T00:59:57.608Z,19.1
2016-06-04T01:00:07.593Z,19
2016-06-04T01:00:17.421Z,19
2016-06-04T01:00:27.577Z,19
2016-06-04T01:00:37.562Z,19
2016-06-04T01:00:47.581Z,19
2016-06-04T01:00:57.565Z,19
2016-06-04T01:01:07.550Z,19
2016-06-04T01:01:17.550Z,19
2016-06-04T01:01:27.534Z,19
2016-06-04T01:01:37.518Z,18.9
2016-06-04T01:01:47.540Z,19
2016-06-04T01:01:57.524Z,19
2016-06-04T01:02:07.524Z,19
2016-06-04T01:02:17.509Z,18.9
2016-06-04T01:02:27.493Z,19
2016-06-04T01:02:37.493Z,19
2016-06-04T01:02:47.513Z,19
2016-06-04T01:02:57.498Z,18.9
2016-06-04T01:03:07.498Z,19
2016-06-04T01:03:17.466Z,18.8
2016-06-04T01:03:27.466Z,18.9
2016-06-04T01:03:37.451Z,19
2016-06-04T01:03:47.463Z,19
2016-06-04T01:03:57.463Z,18.9
2016-06-04T01:04:07.448Z,19
2016-06-04T01:04:17.448Z,19
2016-06-04T01:04:27.416Z,19
2016-06-04T01:04:37.401Z,19
2016-06-04T01:04:47.416Z,19
2016-06-04T01:04:57.416Z,19
2016-06-04T01:05:07.384Z,19
2016-06-04T01:05:17.384Z,19
2016-06-04T01:05:27.369Z,19
2016-06-04T01:05:37.197Z,19
2016-06-04T01:05:47.353Z,19
2016-06-04T01:05:57.353Z,19
2016-06-04T01:06:07.337Z,18.9
2016-06-04T01:06:17.337Z,19
2016-06-04T01:06:27.306Z,19
2016-06-04T01:06:37.290Z,19
2016-06-04T01:06:47.304Z,19
2016-06-04T01:06:57.288Z,18.9
2016-06-04T01:07:07.273Z,19
2016-06-04T01:07:17.273Z,19
2016-06-04T01:07:27.242Z,19
2016-06-04T01:07:37.242Z,19.1
2016-06-04T01:07:47.241Z,18.9
2016-06-04T01:07:57.225Z,19
2016-06-04T01:08:07.225Z,18.9
2016-06-04T01:08:17.210Z,18.9
2016-06-04T01:08:27.194Z,19
2016-06-04T01:08:37.178Z,18.9
2016-06-04T01:08:47.174Z,19
2016-06-04T01:08:57.174Z,19
2016-06-04T01:09:07.158Z,19
2016-06-04T01:09:17.158Z,18.9
2016-06-04T01:09:27.143Z,19
2016-06-04T01:09:37.127Z,19
2016-06-04T01:09:47.118Z,19
2016-06-04T01:09:57.118Z,18.9
2016-06-04T01:10:07.103Z,19
2016-06-04T01:10:17.087Z,18.8
2016-06-04T01:10:27.071Z,19
2016-06-04T01:10:37.087Z,19
2016-06-04T01:10:47.188Z,19
2016-06-04T01:10:57.125Z,19
2016-06-04T01:11:07.453Z,18.8
2016-06-04T01:11:17.703Z,18.8
2016-06-04T01:11:27.657Z,18.9
2016-06-04T01:11:38.172Z,18.9
2016-06-04T01:11:47.289Z,18.8
2016-06-04T01:11:57.335Z,18.9
2016-06-04T01:12:06.976Z,18.9
2016-06-04T01:12:16.960Z,18.9
2016-06-04T01:12:26.945Z,19
2016-06-04T01:12:36.929Z,18.9
2016-06-04T01:12:46.921Z,18.9
2016-06-04T01:12:56.921Z,18.9
2016-06-04T01:13:06.905Z,18.9
2016-06-04T01:13:16.889Z,18.8
2016-06-04T01:13:26.874Z,18.9
2016-06-04T01:13:36.874Z,18.9
2016-06-04T01:13:46.864Z,18.8
2016-06-04T01:13:56.848Z,18.8
2016-06-04T01:14:06.864Z,18.8
2016-06-04T01:14:16.833Z,18.7
2016-06-04T01:14:26.817Z,18.8
2016-06-04T01:14:36.802Z,18.8
2016-06-04T01:14:46.790Z,18.8
2016-06-04T01:14:56.790Z,18.8
2016-06-04T01:15:06.774Z,18.8
2016-06-04T01:15:16.759Z,18.8
2016-06-04T01:15:26.743Z,18.8
2016-06-04T01:15:36.743Z,18.8
2016-06-04T01:15:46.731Z,18.8
2016-06-04T01:15:56.716Z,18.8
2016-06-04T01:16:06.716Z,18.9
2016-06-04T01:16:16.700Z,18.9
2016-06-04T01:16:26.685Z,18.8
2016-06-04T01:16:36.669Z,19
2016-06-04T01:16:46.673Z,18.9
2016-06-04T01:16:56.657Z,19
2016-06-04T01:17:06.642Z,18.8
2016-06-04T01:17:16.626Z,18.9
2016-06-04T01:17:26.610Z,18.9
2016-06-04T01:17:36.595Z,18.8
2016-06-04T01:17:46.600Z,18.9
2016-06-04T01:17:56.584Z,18.8
2016-06-04T01:18:06.569Z,18.8
2016-06-04T01:18:16.569Z,19
2016-06-04T01:18:26.553Z,18.9
2016-06-04T01:18:36.553Z,18.9
2016-06-04T01:18:46.525Z,18.9
2016-06-04T01:18:56.509Z,19
2016-06-04T01:19:06.493Z,18.9
2016-06-04T01:19:16.493Z,18.9
2016-06-04T01:19:26.478Z,18.9
2016-06-04T01:19:36.493Z,18.9
2016-06-04T01:19:46.465Z,18.9
2016-06-04T01:19:56.450Z,18.9
2016-06-04T01:20:06.434Z,19
2016-06-04T01:20:16.418Z,18.9
2016-06-04T01:20:26.418Z,19
2016-06-04T01:20:36.403Z,19
2016-06-04T01:20:46.391Z,18.9
2016-06-04T01:20:56.375Z,19
2016-06-04T01:21:06.204Z,18.9
2016-06-04T01:21:16.360Z,18.9
2016-06-04T01:21:26.344Z,19
2016-06-04T01:21:36.329Z,19
2016-06-04T01:21:46.316Z,18.9
2016-06-04T01:21:56.316Z,18.9
2016-06-04T01:22:06.300Z,18.9
2016-06-04T01:22:16.285Z,18.9
2016-06-04T01:22:26.269Z,18.8
2016-06-04T01:22:36.269Z,18.9
2016-06-04T01:22:46.256Z,18.9
2016-06-04T01:22:56.241Z,18.9
2016-06-04T01:23:06.241Z,18.9
2016-06-04T01:23:16.225Z,18.9
2016-06-04T01:23:26.225Z,18.9
2016-06-04T01:23:36.210Z,18.8
2016-06-04T01:23:46.181Z,18.8
2016-06-04T01:23:56.181Z,18.8
2016-06-04T01:24:06.166Z,18.8
2016-06-04T01:24:16.150Z,18.8
2016-06-04T01:24:26.150Z,18.8
2016-06-04T01:24:36.134Z,18.8
2016-06-04T01:24:46.122Z,18.8
2016-06-04T01:24:56.106Z,18.8
2016-06-04T01:25:06.091Z,18.8
2016-06-04T01:25:16.091Z,18.8
2016-06-04T01:25:26.075Z,18.8
2016-06-04T01:25:36.059Z,18.8
2016-06-04T01:25:46.281Z,18.8
2016-06-04T01:25:56.047Z,18.8
2016-06-04T01:26:06.922Z,18.8
2016-06-04T01:26:16.015Z,18.8
2016-06-04T01:26:26.609Z,18.8
2016-06-04T01:26:36.000Z,18.8
2016-06-04T01:26:46.112Z,18.9
2016-06-04T01:26:56.034Z,18.8
2016-06-04T01:27:05.956Z,18.8
2016-06-04T01:27:15.956Z,18.8
2016-06-04T01:27:25.940Z,18.9
2016-06-04T01:27:35.925Z,18.8
2016-06-04T01:27:45.928Z,18.9
2016-06-04T01:27:55.912Z,18.8
2016-06-04T01:28:05.896Z,18.8
2016-06-04T01:28:15.881Z,18.9
2016-06-04T01:28:25.865Z,18.9
2016-06-04T01:28:35.850Z,18.8
2016-06-04T01:28:45.853Z,18.9
2016-06-04T01:28:55.837Z,18.8
2016-06-04T01:29:05.821Z,18.9
2016-06-04T01:29:15.806Z,18.8
2016-06-04T01:29:25.806Z,18.8
2016-06-04T01:29:35.790Z,18.8
2016-06-04T01:29:45.777Z,18.8
2016-06-04T01:29:55.762Z,18.8
2016-06-04T01:30:05.746Z,18.8
2016-06-04T01:30:15.746Z,18.8
2016-06-04T01:30:25.731Z,18.9
2016-06-04T01:30:35.715Z,18.8
2016-06-04T01:30:45.718Z,18.8
2016-06-04T01:30:55.702Z,18.8
2016-06-04T01:31:05.687Z,18.8
2016-06-04T01:31:15.671Z,18.8
2016-06-04T01:31:25.671Z,18.8
2016-06-04T01:31:35.655Z,18.8
2016-06-04T01:31:45.642Z,18.8
2016-06-04T01:31:55.626Z,18.8
2016-06-04T01:32:05.626Z,18.8
2016-06-04T01:32:15.611Z,18.8
2016-06-04T01:32:25.595Z,18.8
2016-06-04T01:32:35.611Z,18.8
2016-06-04T01:32:45.567Z,18.8
2016-06-04T01:32:55.567Z,18.8
2016-06-04T01:33:05.551Z,18.8
2016-06-04T01:33:15.551Z,18.9
2016-06-04T01:33:25.535Z,18.8
2016-06-04T01:33:35.520Z,18.8
2016-06-04T01:33:45.506Z,18.8
2016-06-04T01:33:55.491Z,18.7
2016-06-04T01:34:05.491Z,18.8
2016-06-04T01:34:15.506Z,18.7
2016-06-04T01:34:25.475Z,18.7
2016-06-04T01:34:35.459Z,18.8
2016-06-04T01:34:45.448Z,18.8
2016-06-04T01:34:55.448Z,18.7
2016-06-04T01:35:05.416Z,18.7
2016-06-04T01:35:15.416Z,18.7
2016-06-04T01:35:25.401Z,18.7
2016-06-04T01:35:35.385Z,18.7
2016-06-04T01:35:45.372Z,18.7
2016-06-04T01:35:55.356Z,18.7
2016-06-04T01:36:05.356Z,18.7
2016-06-04T01:36:15.340Z,18.6
2016-06-04T01:36:25.325Z,18.7
2016-06-04T01:36:35.309Z,18.6
2016-06-04T01:36:45.296Z,18.7
2016-06-04T01:36:55.140Z,18.7
2016-06-04T01:37:05.281Z,18.7
2016-06-04T01:37:15.265Z,18.6
2016-06-04T01:37:25.250Z,18.7
2016-06-04T01:37:35.234Z,18.7
2016-06-04T01:37:45.237Z,18.8
2016-06-04T01:37:55.221Z,18.7
2016-06-04T01:38:05.206Z,18.7
2016-06-04T01:38:15.190Z,18.8
2016-06-04T01:38:25.190Z,18.7
2016-06-04T01:38:35.174Z,18.8
2016-06-04T01:38:45.176Z,18.8
2016-06-04T01:38:55.176Z,18.7
2016-06-04T01:39:05.145Z,18.8
2016-06-04T01:39:15.130Z,18.8
2016-06-04T01:39:25.114Z,18.8
2016-06-04T01:39:35.098Z,18.7
2016-06-04T01:39:45.101Z,18.7
2016-06-04T01:39:55.086Z,18.7
2016-06-04T01:40:05.070Z,18.7
2016-06-04T01:40:15.070Z,18.7
2016-06-04T01:40:25.054Z,18.7
2016-06-04T01:40:35.195Z,18.7
2016-06-04T01:40:46.448Z,18.7
2016-06-04T01:40:55.589Z,18.7
2016-06-04T01:41:05.011Z,18.7
2016-06-04T01:41:15.479Z,18.7
2016-06-04T01:41:25.182Z,18.8
2016-06-04T01:41:34.979Z,18.8
2016-06-04T01:41:45.466Z,18.7
2016-06-04T01:41:54.950Z,18.7
2016-06-04T01:42:04.934Z,18.6
2016-06-04T01:42:14.934Z,18.6
2016-06-04T01:42:24.903Z,18.5
2016-06-04T01:42:34.903Z,18.6
2016-06-04T01:42:44.891Z,18.6
2016-06-04T01:42:54.875Z,18.5
2016-06-04T01:43:04.859Z,18.6
2016-06-04T01:43:14.859Z,18.6
2016-06-04T01:43:24.703Z,18.5
2016-06-04T01:43:34.828Z,18.6
2016-06-04T01:43:44.831Z,18.5
2016-06-04T01:43:54.815Z,18.6
2016-06-04T01:44:04.644Z,18.6
2016-06-04T01:44:14.784Z,18.6
2016-06-04T01:44:24.784Z,18.6
2016-06-04T01:44:34.769Z,18.6
2016-06-04T01:44:44.755Z,18.6
2016-06-04T01:44:54.739Z,18.7
2016-06-04T01:45:04.724Z,18.6
2016-06-04T01:45:14.724Z,18.6
2016-06-04T01:45:24.708Z,18.5
2016-06-04T01:45:34.692Z,18.5
2016-06-04T01:45:44.680Z,18.6
2016-06-04T01:45:54.664Z,18.5
2016-06-04T01:46:04.664Z,18.6
2016-06-04T01:46:14.649Z,18.6
2016-06-04T01:46:24.649Z,18.5
2016-06-04T01:46:34.617Z,18.5
2016-06-04T01:46:44.620Z,18.5
2016-06-04T01:46:54.620Z,18.5
2016-06-04T01:47:04.605Z,18.5
2016-06-04T01:47:14.573Z,18.5
2016-06-04T01:47:24.573Z,18.5
2016-06-04T01:47:34.558Z,18.5
2016-06-04T01:47:44.561Z,18.5
2016-06-04T01:47:54.530Z,18.5
2016-06-04T01:48:04.530Z,18.6
2016-06-04T01:48:14.514Z,18.5
2016-06-04T01:48:24.514Z,18.5
2016-06-04T01:48:34.483Z,18.5
2016-06-04T01:48:44.485Z,18.5
2016-06-04T01:48:54.469Z,18.5
2016-06-04T01:49:04.453Z,18.6
2016-06-04T01:49:14.438Z,18.6
2016-06-04T01:49:24.438Z,18.5
2016-06-04T01:49:34.422Z,18.6
2016-06-04T01:49:44.410Z,18.5
2016-06-04T01:49:54.410Z,18.5
2016-06-04T01:50:04.394Z,18.6
2016-06-04T01:50:14.394Z,18.6
2016-06-04T01:50:24.363Z,18.5
2016-06-04T01:50:34.347Z,18.5
2016-06-04T01:50:44.349Z,18.5
2016-06-04T01:50:54.333Z,18.5
2016-06-04T01:51:04.318Z,18.5
2016-06-04T01:51:14.302Z,18.6
2016-06-04T01:51:24.287Z,18.6
2016-06-04T01:51:34.287Z,18.6
2016-06-04T01:51:44.271Z,18.6
2016-06-04T01:51:54.290Z,18.5
2016-06-04T01:52:04.274Z,18.5
2016-06-04T01:52:14.243Z,18.4
2016-06-04T01:52:24.227Z,18.4
2016-06-04T01:52:34.071Z,18.3
2016-06-04T01:52:44.211Z,18.4
2016-06-04T01:52:54.199Z,18.4
2016-06-04T01:53:04.183Z,18.4
2016-06-04T01:53:14.168Z,18.3
2016-06-04T01:53:24.168Z,18.3
2016-06-04T01:53:34.152Z,18.3
2016-06-04T01:53:44.136Z,18.2
2016-06-04T01:53:54.123Z,18.3
2016-06-04T01:54:04.138Z,18.3
2016-06-04T01:54:14.107Z,18.3
2016-06-04T01:54:24.091Z,18.4
2016-06-04T01:54:34.076Z,18.3
2016-06-04T01:54:44.060Z,18.4
2016-06-04T01:54:54.063Z,18.3
2016-06-04T01:55:04.048Z,18.3
2016-06-04T01:55:14.032Z,18.4
2016-06-04T01:55:24.016Z,18.3
2016-06-04T01:55:34.438Z,18.4
2016-06-04T01:55:44.001Z,18.3
2016-06-04T01:55:54.004Z,18.3
2016-06-04T01:56:04.144Z,18.3
2016-06-04T01:56:13.816Z,18.4
2016-06-04T01:56:24.316Z,18.3
2016-06-04T01:56:34.191Z,18.4
2016-06-04T01:56:44.176Z,18.4
2016-06-04T01:56:53.913Z,18.4
2016-06-04T01:57:03.913Z,18.4
2016-06-04T01:57:13.897Z,18.3
2016-06-04T01:57:23.882Z,18.4
2016-06-04T01:57:33.866Z,18.4
2016-06-04T01:57:43.866Z,18.4
2016-06-04T01:57:53.853Z,18.4
2016-06-04T01:58:03.838Z,18.5
2016-06-04T01:58:13.822Z,18.4
2016-06-04T01:58:23.822Z,18.4
2016-06-04T01:58:33.807Z,18.4
2016-06-04T01:58:43.791Z,18.5
2016-06-04T01:58:53.793Z,18.5
2016-06-04T01:59:03.777Z,18.5
2016-06-04T01:59:13.762Z,18.5
2016-06-04T01:59:23.746Z,18.5
2016-06-04T01:59:33.574Z,18.5
2016-06-04T01:59:43.730Z,18.5
2016-06-04T01:59:53.717Z,18.4
2016-06-04T02:00:03.701Z,18.5
2016-06-04T02:00:13.686Z,18.5
2016-06-04T02:00:23.686Z,18.5
2016-06-04T02:00:33.670Z,18.5
2016-06-04T02:00:43.670Z,18.5
2016-06-04T02:00:53.658Z,18.5
2016-06-04T02:01:03.643Z,18.5
2016-06-04T02:01:13.627Z,18.5
2016-06-04T02:01:23.611Z,18.5
2016-06-04T02:01:33.596Z,18.5
2016-06-04T02:01:43.596Z,18.5
2016-06-04T02:01:53.582Z,18.5
2016-06-04T02:02:03.567Z,18.5
2016-06-04T02:02:13.551Z,18.5
2016-06-04T02:02:23.551Z,18.5
2016-06-04T02:02:33.535Z,18.5
2016-06-04T02:02:43.520Z,18.5
2016-06-04T02:02:53.506Z,18.5
2016-06-04T02:03:03.490Z,18.4
2016-06-04T02:03:13.490Z,18.4
2016-06-04T02:03:23.475Z,18.5
2016-06-04T02:03:33.459Z,18.4
2016-06-04T02:03:43.459Z,18.5
2016-06-04T02:03:53.448Z,18.4
2016-06-04T02:04:03.432Z,18.4
2016-06-04T02:04:13.416Z,18.5
2016-06-04T02:04:23.416Z,18.5
2016-06-04T02:04:33.385Z,18.5
2016-06-04T02:04:43.385Z,18.5
2016-06-04T02:04:53.371Z,18.5
2016-06-04T02:05:03.356Z,18.5
2016-06-04T02:05:13.340Z,18.5
2016-06-04T02:05:23.340Z,18.4
2016-06-04T02:05:33.325Z,18.5
2016-06-04T02:05:43.325Z,18.5
2016-06-04T02:05:53.295Z,18.4
2016-06-04T02:06:03.295Z,18.5
2016-06-04T02:06:13.280Z,18.5
2016-06-04T02:06:23.264Z,18.4
2016-06-04T02:06:33.248Z,18.5
2016-06-04T02:06:43.248Z,18.5
2016-06-04T02:06:53.237Z,18.4
2016-06-04T02:07:03.221Z,18.4
2016-06-04T02:07:13.206Z,18.4
2016-06-04T02:07:23.206Z,18.5
2016-06-04T02:07:33.190Z,18.5
2016-06-04T02:07:43.174Z,18.5
2016-06-04T02:07:53.161Z,18.5
2016-06-04T02:08:03.161Z,18.5
2016-06-04T02:08:13.145Z,18.5
2016-06-04T02:08:23.129Z,18.5
2016-06-04T02:08:33.114Z,18.5
2016-06-04T02:08:43.098Z,18.6
2016-06-04T02:08:53.100Z,18.5
2016-06-04T02:09:03.100Z,18.5
2016-06-04T02:09:13.069Z,18.5
2016-06-04T02:09:23.069Z,18.5
2016-06-04T02:09:33.053Z,18.5
2016-06-04T02:09:43.038Z,18.4
2016-06-04T02:09:53.026Z,18.6
2016-06-04T02:10:03.010Z,18.5
2016-06-04T02:10:13.010Z,18.5
2016-06-04T02:10:22.995Z,18.5
2016-06-04T02:10:32.979Z,18.5
2016-06-04T02:10:43.245Z,18.5
2016-06-04T02:10:52.967Z,18.5
2016-06-04T02:11:03.310Z,18.5
2016-06-04T02:11:13.310Z,18.5
2016-06-04T02:11:22.935Z,18.4
2016-06-04T02:11:32.920Z,18.5
2016-06-04T02:11:43.092Z,18.4
2016-06-04T02:11:52.889Z,18.4
2016-06-04T02:12:02.874Z,18.5
2016-06-04T02:12:12.874Z,18.4
2016-06-04T02:12:22.858Z,18.4
2016-06-04T02:12:32.843Z,18.4
2016-06-04T02:12:42.827Z,18.4
2016-06-04T02:12:52.815Z,18.4
2016-06-04T02:13:02.815Z,18.3
2016-06-04T02:13:12.659Z,18.4
2016-06-04T02:13:22.784Z,18.3
2016-06-04T02:13:32.784Z,18.3
2016-06-04T02:13:42.768Z,18.3
2016-06-04T02:13:52.755Z,18.3
2016-06-04T02:14:02.739Z,18.3
2016-06-04T02:14:12.724Z,18.3